sensor_id;sensor_type;location;lat;lon;timestamp;pressure;altitude;pressure_sealevel;temperature;humidity
49122;BME280;35529;44.342;25.944;2023-04-30T00:01:55;100460.50;;;8.56;100.00
49122;BME280;35529;44.342;25.944;2023-04-30T00:04:24;100450.16;;;8.31;100.00
49122;BME280;35529;44.342;25.944;2023-04-30T00:06:50;100453.16;;;8.28;100.00
49122;BME280;35529;44.342;25.944;2023-04-30T00:09:16;100447.13;;;8.34;100.00
49122;BME280;35529;44.342;25.944;2023-04-30T00:11:42;100447.13;;;8.34;100.00
49122;BME280;35529;44.342;25.944;2023-04-30T00:14:11;100444.94;;;8.38;100.00
49122;BME280;35529;44.342;25.944;2023-04-30T00:16:37;100444.41;;;8.43;100.00
49122;BME280;35529;44.342;25.944;2023-04-30T00:19:07;100441.78;;;8.43;100.00
49122;BME280;35529;44.342;25.944;2023-04-30T00:21:33;100435.84;;;8.41;100.00
49122;BME280;35529;44.342;25.944;2023-04-30T00:24:03;100439.94;;;8.43;100.00
49122;BME280;35529;44.342;25.944;2023-04-30T00:26:31;100438.28;;;8.42;100.00
49122;BME280;35529;44.342;25.944;2023-04-30T00:28:57;100434.84;;;8.42;100.00
49122;BME280;35529;44.342;25.944;2023-04-30T00:31:23;100434.19;;;8.39;100.00
49122;BME280;35529;44.342;25.944;2023-04-30T00:33:50;100435.66;;;8.42;100.00
49122;BME280;35529;44.342;25.944;2023-04-30T00:36:16;100435.34;;;8.45;100.00
49122;BME280;35529;44.342;25.944;2023-04-30T00:38:42;100436.28;;;8.44;100.00
49122;BME280;35529;44.342;25.944;2023-04-30T00:41:08;100440.50;;;8.38;100.00
49122;BME280;35529;44.342;25.944;2023-04-30T00:43:35;100441.13;;;8.26;100.00
49122;BME280;35529;44.342;25.944;2023-04-30T00:46:01;100444.47;;;8.04;100.00
49122;BME280;35529;44.342;25.944;2023-04-30T00:48:28;100441.09;;;7.96;100.00
49122;BME280;35529;44.342;25.944;2023-04-30T00:50:54;100432.06;;;7.90;100.00
49122;BME280;35529;44.342;25.944;2023-04-30T00:53:20;100429.13;;;7.85;100.00
49122;BME280;35529;44.342;25.944;2023-04-30T00:55:47;100432.06;;;7.90;100.00
49122;BME280;35529;44.342;25.944;2023-04-30T00:58:13;100432.34;;;7.95;100.00
49122;BME280;35529;44.342;25.944;2023-04-30T01:00:40;100425.34;;;8.02;100.00
49122;BME280;35529;44.342;25.944;2023-04-30T01:03:14;100420.06;;;8.02;100.00
49122;BME280;35529;44.342;25.944;2023-04-30T01:05:41;100413.69;;;8.12;100.00
49122;BME280;35529;44.342;25.944;2023-04-30T01:08:09;100422.91;;;8.16;100.00
49122;BME280;35529;44.342;25.944;2023-04-30T01:13:33;100427.09;;;8.25;100.00
49122;BME280;35529;44.342;25.944;2023-04-30T01:16:12;100419.50;;;8.22;100.00
49122;BME280;35529;44.342;25.944;2023-04-30T01:18:42;100412.56;;;8.21;100.00
49122;BME280;35529;44.342;25.944;2023-04-30T01:21:09;100417.84;;;8.21;100.00
49122;BME280;35529;44.342;25.944;2023-04-30T01:26:42;100411.94;;;8.19;100.00
49122;BME280;35529;44.342;25.944;2023-04-30T01:29:09;100410.47;;;8.16;100.00
49122;BME280;35529;44.342;25.944;2023-04-30T01:31:37;100408.03;;;8.15;100.00
49122;BME280;35529;44.342;25.944;2023-04-30T01:34:03;100402.53;;;8.16;100.00
49122;BME280;35529;44.342;25.944;2023-04-30T01:41:28;100409.00;;;8.14;100.00
49122;BME280;35529;44.342;25.944;2023-04-30T01:46:27;100409.28;;;8.19;100.00
49122;BME280;35529;44.342;25.944;2023-04-30T01:51:42;100404.38;;;8.16;100.00
49122;BME280;35529;44.342;25.944;2023-04-30T01:57:04;100409.81;;;8.14;100.00
49122;BME280;35529;44.342;25.944;2023-04-30T01:59:31;100407.09;;;8.08;100.00
49122;BME280;35529;44.342;25.944;2023-04-30T02:01:58;100411.09;;;8.03;100.00
49122;BME280;35529;44.342;25.944;2023-04-30T02:04:24;100402.34;;;7.88;100.00
49122;BME280;35529;44.342;25.944;2023-04-30T02:06:50;100405.69;;;7.82;100.00
49122;BME280;35529;44.342;25.944;2023-04-30T02:09:16;100406.97;;;7.86;100.00
49122;BME280;35529;44.342;25.944;2023-04-30T02:11:42;100416.19;;;7.90;100.00
49122;BME280;35529;44.342;25.944;2023-04-30T02:14:10;100406.88;;;7.79;100.00
49122;BME280;35529;44.342;25.944;2023-04-30T02:16:39;100410.38;;;7.80;100.00
49122;BME280;35529;44.342;25.944;2023-04-30T02:19:05;100408.72;;;7.79;100.00
49122;BME280;35529;44.342;25.944;2023-04-30T02:21:31;100409.41;;;7.72;100.00
49122;BME280;35529;44.342;25.944;2023-04-30T02:23:57;100404.78;;;7.75;100.00
49122;BME280;35529;44.342;25.944;2023-04-30T02:26:26;100402.78;;;7.77;100.00
49122;BME280;35529;44.342;25.944;2023-04-30T02:28:54;100402.97;;;7.75;100.00
49122;BME280;35529;44.342;25.944;2023-04-30T02:31:20;100405.88;;;7.80;100.00
49122;BME280;35529;44.342;25.944;2023-04-30T02:33:46;100400.78;;;7.79;100.00
49122;BME280;35529;44.342;25.944;2023-04-30T02:36:12;100398.66;;;7.74;100.00
49122;BME280;35529;44.342;25.944;2023-04-30T02:38:38;100402.03;;;7.68;100.00
49122;BME280;35529;44.342;25.944;2023-04-30T02:41:05;100397.94;;;7.65;100.00
49122;BME280;35529;44.342;25.944;2023-04-30T02:43:31;100412.13;;;7.64;100.00
49122;BME280;35529;44.342;25.944;2023-04-30T02:45:57;100409.22;;;7.59;100.00
49122;BME280;35529;44.342;25.944;2023-04-30T02:48:23;100411.66;;;7.61;100.00
49122;BME280;35529;44.342;25.944;2023-04-30T02:50:49;100411.66;;;7.61;100.00
49122;BME280;35529;44.342;25.944;2023-04-30T02:53:15;100413.88;;;7.57;100.00
49122;BME280;35529;44.342;25.944;2023-04-30T02:55:41;100410.38;;;7.57;100.00
49122;BME280;35529;44.342;25.944;2023-04-30T02:58:07;100411.81;;;7.44;100.00
49122;BME280;35529;44.342;25.944;2023-04-30T03:00:33;100414.03;;;7.32;100.00
49122;BME280;35529;44.342;25.944;2023-04-30T03:03:00;100407.47;;;7.28;100.00
49122;BME280;35529;44.342;25.944;2023-04-30T03:05:27;100409.41;;;7.34;100.00
49122;BME280;35529;44.342;25.944;2023-04-30T03:07:53;100416.50;;;7.34;100.00
49122;BME280;35529;44.342;25.944;2023-04-30T03:10:19;100417.78;;;7.38;100.00
49122;BME280;35529;44.342;25.944;2023-04-30T03:12:45;100419.25;;;7.41;100.00
49122;BME280;35529;44.342;25.944;2023-04-30T03:15:11;100418.44;;;7.40;100.00
49122;BME280;35529;44.342;25.944;2023-04-30T03:17:37;100412.50;;;7.38;100.00
49122;BME280;35529;44.342;25.944;2023-04-30T03:20:03;100417.09;;;7.44;100.00
49122;BME280;35529;44.342;25.944;2023-04-30T03:22:30;100419.09;;;7.42;100.00
49122;BME280;35529;44.342;25.944;2023-04-30T03:24:56;100417.78;;;7.38;100.00
49122;BME280;35529;44.342;25.944;2023-04-30T03:27:22;100419.00;;;7.35;100.00
49122;BME280;35529;44.342;25.944;2023-04-30T03:29:50;100424.28;;;7.35;100.00
49122;BME280;35529;44.342;25.944;2023-04-30T03:32:16;100421.91;;;7.41;100.00
49122;BME280;35529;44.342;25.944;2023-04-30T03:34:42;100426.66;;;7.45;100.00
49122;BME280;35529;44.342;25.944;2023-04-30T03:37:09;100425.19;;;7.43;100.00
49122;BME280;35529;44.342;25.944;2023-04-30T03:39:35;100422.25;;;7.37;100.00
49122;BME280;35529;44.342;25.944;2023-04-30T03:42:01;100428.03;;;7.41;100.00
49122;BME280;35529;44.342;25.944;2023-04-30T03:44:28;100429.81;;;7.41;100.00
49122;BME280;35529;44.342;25.944;2023-04-30T03:46:54;100431.28;;;7.43;100.00
49122;BME280;35529;44.342;25.944;2023-04-30T03:49:20;100429.31;;;7.45;100.00
49122;BME280;35529;44.342;25.944;2023-04-30T03:51:46;100431.94;;;7.45;100.00
49122;BME280;35529;44.342;25.944;2023-04-30T03:54:15;100433.31;;;7.41;100.00
49122;BME280;35529;44.342;25.944;2023-04-30T03:56:43;100440.47;;;7.55;100.00
49122;BME280;35529;44.342;25.944;2023-04-30T03:59:12;100429.00;;;7.63;100.00
49122;BME280;35529;44.342;25.944;2023-04-30T04:01:38;100441.13;;;7.72;100.00
49122;BME280;35529;44.342;25.944;2023-04-30T04:04:04;100435.50;;;7.76;100.00
49122;BME280;35529;44.342;25.944;2023-04-30T04:06:30;100443.78;;;7.72;100.00
49122;BME280;35529;44.342;25.944;2023-04-30T04:08:57;100430.34;;;7.82;100.00
49122;BME280;35529;44.342;25.944;2023-04-30T04:11:23;100442.28;;;7.93;100.00
49122;BME280;35529;44.342;25.944;2023-04-30T04:13:51;100444.19;;;7.99;100.00
49122;BME280;35529;44.342;25.944;2023-04-30T04:16:23;100445.84;;;8.00;100.00
49122;BME280;35529;44.342;25.944;2023-04-30T04:18:49;100441.84;;;8.04;100.00
49122;BME280;35529;44.342;25.944;2023-04-30T04:21:15;100441.94;;;8.11;100.00
49122;BME280;35529;44.342;25.944;2023-04-30T04:23:50;100440.13;;;8.12;100.00
49122;BME280;35529;44.342;25.944;2023-04-30T04:26:19;100442.59;;;8.13;100.00
49122;BME280;35529;44.342;25.944;2023-04-30T04:28:48;100447.69;;;8.15;100.00
49122;BME280;35529;44.342;25.944;2023-04-30T04:31:17;100460.63;;;8.10;100.00
49122;BME280;35529;44.342;25.944;2023-04-30T04:33:47;100462.69;;;7.99;100.00
49122;BME280;35529;44.342;25.944;2023-04-30T04:36:13;100454.94;;;7.83;100.00
49122;BME280;35529;44.342;25.944;2023-04-30T04:38:41;100454.16;;;7.74;100.00
49122;BME280;35529;44.342;25.944;2023-04-30T04:41:09;100455.03;;;7.89;100.00
49122;BME280;35529;44.342;25.944;2023-04-30T04:43:37;100454.13;;;7.82;100.00
49122;BME280;35529;44.342;25.944;2023-04-30T04:46:06;100450.16;;;7.78;100.00
49122;BME280;35529;44.342;25.944;2023-04-30T04:48:33;100445.34;;;7.82;100.00
49122;BME280;35529;44.342;25.944;2023-04-30T04:51:02;100450.50;;;7.98;100.00
49122;BME280;35529;44.342;25.944;2023-04-30T04:53:28;100440.75;;;7.99;100.00
49122;BME280;35529;44.342;25.944;2023-04-30T04:55:54;100444.28;;;8.06;100.00
49122;BME280;35529;44.342;25.944;2023-04-30T04:58:25;100462.09;;;8.12;100.00
49122;BME280;35529;44.342;25.944;2023-04-30T05:00:51;100462.28;;;8.26;100.00
49122;BME280;35529;44.342;25.944;2023-04-30T05:03:22;100459.22;;;8.52;100.00
49122;BME280;35529;44.342;25.944;2023-04-30T05:05:51;100468.69;;;8.61;100.00
49122;BME280;35529;44.342;25.944;2023-04-30T05:08:17;100466.22;;;8.75;100.00
49122;BME280;35529;44.342;25.944;2023-04-30T05:10:43;100468.22;;;8.87;100.00
49122;BME280;35529;44.342;25.944;2023-04-30T05:13:09;100468.09;;;8.96;100.00
49122;BME280;35529;44.342;25.944;2023-04-30T05:15:38;100463.88;;;9.16;100.00
49122;BME280;35529;44.342;25.944;2023-04-30T05:18:04;100467.47;;;9.30;100.00
49122;BME280;35529;44.342;25.944;2023-04-30T05:20:30;100464.31;;;9.42;100.00
49122;BME280;35529;44.342;25.944;2023-04-30T05:23:01;100454.03;;;9.53;100.00
49122;BME280;35529;44.342;25.944;2023-04-30T05:25:28;100464.81;;;9.73;100.00
49122;BME280;35529;44.342;25.944;2023-04-30T05:27:59;100463.41;;;9.99;100.00
49122;BME280;35529;44.342;25.944;2023-04-30T05:30:27;100460.84;;;10.13;100.00
49122;BME280;35529;44.342;25.944;2023-04-30T05:32:54;100460.19;;;10.39;100.00
49122;BME280;35529;44.342;25.944;2023-04-30T05:35:22;100463.22;;;10.71;100.00
49122;BME280;35529;44.342;25.944;2023-04-30T05:37:51;100471.53;;;11.10;100.00
49122;BME280;35529;44.342;25.944;2023-04-30T05:40:17;100468.97;;;11.43;100.00
49122;BME280;35529;44.342;25.944;2023-04-30T05:42:43;100470.00;;;11.76;100.00
49122;BME280;35529;44.342;25.944;2023-04-30T05:45:13;100479.44;;;11.98;100.00
49122;BME280;35529;44.342;25.944;2023-04-30T05:47:41;100471.84;;;12.22;100.00
49122;BME280;35529;44.342;25.944;2023-04-30T05:50:15;100478.16;;;12.41;100.00
49122;BME280;35529;44.342;25.944;2023-04-30T05:52:47;100477.91;;;12.56;100.00
49122;BME280;35529;44.342;25.944;2023-04-30T05:55:15;100481.97;;;12.72;100.00
49122;BME280;35529;44.342;25.944;2023-04-30T05:57:44;100470.69;;;12.77;100.00
49122;BME280;35529;44.342;25.944;2023-04-30T06:00:13;100475.78;;;12.85;100.00
49122;BME280;35529;44.342;25.944;2023-04-30T06:02:42;100476.31;;;13.00;100.00
49122;BME280;35529;44.342;25.944;2023-04-30T06:05:08;100472.59;;;13.08;100.00
49122;BME280;35529;44.342;25.944;2023-04-30T06:07:34;100474.22;;;13.09;100.00
49122;BME280;35529;44.342;25.944;2023-04-30T06:10:03;100470.50;;;13.17;100.00
49122;BME280;35529;44.342;25.944;2023-04-30T06:12:35;100480.06;;;13.24;100.00
49122;BME280;35529;44.342;25.944;2023-04-30T06:15:01;100479.66;;;13.28;100.00
49122;BME280;35529;44.342;25.944;2023-04-30T06:17:29;100479.44;;;13.36;100.00
49122;BME280;35529;44.342;25.944;2023-04-30T06:19:58;100475.00;;;13.55;100.00
49122;BME280;35529;44.342;25.944;2023-04-30T06:22:27;100480.22;;;13.68;100.00
49122;BME280;35529;44.342;25.944;2023-04-30T06:24:56;100474.34;;;13.85;100.00
49122;BME280;35529;44.342;25.944;2023-04-30T06:27:23;100482.09;;;13.93;100.00
49122;BME280;35529;44.342;25.944;2023-04-30T06:29:53;100465.66;;;13.96;100.00
49122;BME280;35529;44.342;25.944;2023-04-30T06:32:21;100463.44;;;14.12;100.00
49122;BME280;35529;44.342;25.944;2023-04-30T06:34:49;100465.31;;;14.30;100.00
49122;BME280;35529;44.342;25.944;2023-04-30T06:37:18;100461.69;;;14.42;100.00
49122;BME280;35529;44.342;25.944;2023-04-30T06:39:47;100464.59;;;14.59;100.00
49122;BME280;35529;44.342;25.944;2023-04-30T06:42:16;100455.03;;;14.70;100.00
49122;BME280;35529;44.342;25.944;2023-04-30T06:44:42;100452.88;;;14.79;100.00
49122;BME280;35529;44.342;25.944;2023-04-30T06:47:10;100462.13;;;14.95;100.00
49122;BME280;35529;44.342;25.944;2023-04-30T06:49:40;100466.63;;;15.13;100.00
49122;BME280;35529;44.342;25.944;2023-04-30T06:52:11;100465.75;;;15.31;100.00
49122;BME280;35529;44.342;25.944;2023-04-30T06:54:39;100468.00;;;15.46;100.00
49122;BME280;35529;44.342;25.944;2023-04-30T06:57:10;100458.25;;;15.52;100.00
49122;BME280;35529;44.342;25.944;2023-04-30T06:59:37;100444.97;;;15.45;100.00
49122;BME280;35529;44.342;25.944;2023-04-30T07:02:07;100452.53;;;15.60;100.00
49122;BME280;35529;44.342;25.944;2023-04-30T07:04:36;100458.84;;;15.78;100.00
49122;BME280;35529;44.342;25.944;2023-04-30T07:07:06;100457.63;;;15.92;100.00
49122;BME280;35529;44.342;25.944;2023-04-30T07:09:35;100460.41;;;16.09;100.00
49122;BME280;35529;44.342;25.944;2023-04-30T07:12:02;100470.78;;;16.17;100.00
49122;BME280;35529;44.342;25.944;2023-04-30T07:14:28;100476.38;;;16.16;100.00
49122;BME280;35529;44.342;25.944;2023-04-30T07:16:59;100467.63;;;16.20;100.00
49122;BME280;35529;44.342;25.944;2023-04-30T07:19:31;100467.72;;;16.37;100.00
49122;BME280;35529;44.342;25.944;2023-04-30T07:22:02;100473.75;;;16.56;100.00
49122;BME280;35529;44.342;25.944;2023-04-30T07:24:34;100475.13;;;16.71;100.00
49122;BME280;35529;44.342;25.944;2023-04-30T07:27:00;100467.84;;;16.83;100.00
49122;BME280;35529;44.342;25.944;2023-04-30T07:29:35;100462.59;;;17.00;100.00
49122;BME280;35529;44.342;25.944;2023-04-30T07:32:02;100457.63;;;17.09;100.00
49122;BME280;35529;44.342;25.944;2023-04-30T07:34:43;100445.50;;;17.06;100.00
49122;BME280;35529;44.342;25.944;2023-04-30T07:51:40;100449.47;;;17.67;100.00
49122;BME280;35529;44.342;25.944;2023-04-30T07:54:10;100436.31;;;17.65;100.00
49122;BME280;35529;44.342;25.944;2023-04-30T07:56:39;100437.56;;;17.57;100.00
49122;BME280;35529;44.342;25.944;2023-04-30T07:59:14;100443.47;;;17.42;100.00
49122;BME280;35529;44.342;25.944;2023-04-30T08:01:50;100442.34;;;17.55;100.00
49122;BME280;35529;44.342;25.944;2023-04-30T08:04:31;100435.41;;;17.59;100.00
49122;BME280;35529;44.342;25.944;2023-04-30T08:07:44;100439.31;;;17.69;100.00
49122;BME280;35529;44.342;25.944;2023-04-30T08:10:11;100441.94;;;17.81;100.00
49122;BME280;35529;44.342;25.944;2023-04-30T08:12:39;100432.88;;;17.87;100.00
49122;BME280;35529;44.342;25.944;2023-04-30T08:15:10;100433.81;;;17.92;100.00
49122;BME280;35529;44.342;25.944;2023-04-30T08:17:39;100421.81;;;17.83;100.00
49122;BME280;35529;44.342;25.944;2023-04-30T08:20:18;100426.38;;;17.83;100.00
49122;BME280;35529;44.342;25.944;2023-04-30T08:22:52;100426.19;;;17.89;100.00
49122;BME280;35529;44.342;25.944;2023-04-30T08:25:21;100432.56;;;18.00;100.00
49122;BME280;35529;44.342;25.944;2023-04-30T08:27:55;100415.63;;;18.00;100.00
49122;BME280;35529;44.342;25.944;2023-04-30T08:30:27;100416.38;;;17.95;100.00
49122;BME280;35529;44.342;25.944;2023-04-30T08:33:24;100420.47;;;17.98;100.00
49122;BME280;35529;44.342;25.944;2023-04-30T08:35:50;100421.19;;;17.93;100.00
49122;BME280;35529;44.342;25.944;2023-04-30T08:38:18;100412.47;;;17.86;100.00
49122;BME280;35529;44.342;25.944;2023-04-30T08:40:56;100409.94;;;17.96;100.00
49122;BME280;35529;44.342;25.944;2023-04-30T08:43:45;100413.41;;;18.14;100.00
49122;BME280;35529;44.342;25.944;2023-04-30T08:46:13;100414.19;;;18.31;100.00
49122;BME280;35529;44.342;25.944;2023-04-30T08:48:42;100409.75;;;18.42;100.00
49122;BME280;35529;44.342;25.944;2023-04-30T08:51:09;100407.41;;;18.51;100.00
49122;BME280;35529;44.342;25.944;2023-04-30T08:53:39;100409.66;;;18.59;100.00
49122;BME280;35529;44.342;25.944;2023-04-30T08:56:27;100407.41;;;18.51;100.00
49122;BME280;35529;44.342;25.944;2023-04-30T08:58:58;100399.84;;;18.48;100.00
49122;BME280;35529;44.342;25.944;2023-04-30T09:04:52;100403.34;;;18.48;100.00
49122;BME280;35529;44.342;25.944;2023-04-30T09:07:20;100388.53;;;18.46;100.00
49122;BME280;35529;44.342;25.944;2023-04-30T09:09:55;100397.84;;;18.60;100.00
49122;BME280;35529;44.342;25.944;2023-04-30T09:12:24;100398.22;;;18.69;100.00
49122;BME280;35529;44.342;25.944;2023-04-30T09:15:04;100391.25;;;18.73;100.00
49122;BME280;35529;44.342;25.944;2023-04-30T09:17:31;100385.63;;;18.74;100.00
49122;BME280;35529;44.342;25.944;2023-04-30T09:20:07;100392.00;;;18.68;100.00
49122;BME280;35529;44.342;25.944;2023-04-30T09:23:03;100385.25;;;18.66;100.00
49122;BME280;35529;44.342;25.944;2023-04-30T09:25:23;100389.69;;;18.77;100.00
49122;BME280;35529;44.342;25.944;2023-04-30T09:28:06;100378.81;;;18.89;100.00
49122;BME280;35529;44.342;25.944;2023-04-30T09:34:12;100376.88;;;19.12;100.00
49122;BME280;35529;44.342;25.944;2023-04-30T09:37:08;100378.25;;;19.14;100.00
49122;BME280;35529;44.342;25.944;2023-04-30T09:39:55;100364.75;;;19.09;93.44
49122;BME280;35529;44.342;25.944;2023-04-30T09:42:22;100370.19;;;19.19;100.00
49122;BME280;35529;44.342;25.944;2023-04-30T09:44:58;100367.28;;;19.26;100.00
49122;BME280;35529;44.342;25.944;2023-04-30T09:47:30;100360.53;;;19.23;95.25
49122;BME280;35529;44.342;25.944;2023-04-30T09:50:00;100355.84;;;19.08;100.00
49122;BME280;35529;44.342;25.944;2023-04-30T09:52:55;100358.63;;;19.19;100.00
49122;BME280;35529;44.342;25.944;2023-04-30T10:08:47;100362.63;;;19.54;100.00
49122;BME280;35529;44.342;25.944;2023-04-30T10:11:56;100347.31;;;19.59;100.00
49122;BME280;35529;44.342;25.944;2023-04-30T10:14:24;100348.72;;;19.67;100.00
49122;BME280;35529;44.342;25.944;2023-04-30T10:16:57;100354.41;;;19.71;100.00
49122;BME280;35529;44.342;25.944;2023-04-30T10:19:38;100348.19;;;19.65;100.00
49122;BME280;35529;44.342;25.944;2023-04-30T10:25:31;100340.94;;;19.71;100.00
49122;BME280;35529;44.342;25.944;2023-04-30T10:31:59;100336.75;;;19.90;100.00
49122;BME280;35529;44.342;25.944;2023-04-30T10:41:15;100329.06;;;20.20;87.32
49122;BME280;35529;44.342;25.944;2023-04-30T10:50:10;100327.75;;;20.33;100.00
49122;BME280;35529;44.342;25.944;2023-04-30T10:55:59;100319.97;;;20.52;100.00
49122;BME280;35529;44.342;25.944;2023-04-30T10:58:46;100319.47;;;20.55;100.00
49122;BME280;35529;44.342;25.944;2023-04-30T11:01:18;100318.09;;;20.63;100.00
49122;BME280;35529;44.342;25.944;2023-04-30T11:09:15;100318.09;;;20.57;89.81
49122;BME280;35529;44.342;25.944;2023-04-30T11:11:43;100318.34;;;20.56;99.93
49122;BME280;35529;44.342;25.944;2023-04-30T11:14:15;100312.72;;;20.68;99.69
49122;BME280;35529;44.342;25.944;2023-04-30T11:16:48;100321.13;;;20.71;100.00
49122;BME280;35529;44.342;25.944;2023-04-30T11:19:20;100317.59;;;20.76;91.62
49122;BME280;35529;44.342;25.944;2023-04-30T11:27:13;100311.16;;;20.87;100.00
49122;BME280;35529;44.342;25.944;2023-04-30T11:30:00;100314.38;;;20.95;100.00
49122;BME280;35529;44.342;25.944;2023-04-30T11:32:33;100306.56;;;20.93;100.00
49122;BME280;35529;44.342;25.944;2023-04-30T11:35:00;100304.13;;;20.97;100.00
49122;BME280;35529;44.342;25.944;2023-04-30T11:37:38;100301.16;;;20.98;83.08
49122;BME280;35529;44.342;25.944;2023-04-30T11:40:05;100294.66;;;21.04;92.70
49122;BME280;35529;44.342;25.944;2023-04-30T11:42:38;100297.09;;;21.16;100.00
49122;BME280;35529;44.342;25.944;2023-04-30T11:45:06;100291.97;;;21.30;100.00
49122;BME280;35529;44.342;25.944;2023-04-30T11:50:08;100280.09;;;21.31;100.00
49122;BME280;35529;44.342;25.944;2023-04-30T11:52:34;100281.66;;;21.37;100.00
49122;BME280;35529;44.342;25.944;2023-04-30T11:55:07;100286.00;;;21.43;100.00
49122;BME280;35529;44.342;25.944;2023-04-30T11:57:34;100277.63;;;21.40;92.43
49122;BME280;35529;44.342;25.944;2023-04-30T12:00:09;100283.84;;;21.35;100.00
49122;BME280;35529;44.342;25.944;2023-04-30T12:02:37;100280.38;;;21.24;81.08
49122;BME280;35529;44.342;25.944;2023-04-30T12:05:16;100272.53;;;21.18;81.17
49122;BME280;35529;44.342;25.944;2023-04-30T12:07:55;100271.72;;;21.27;100.00
49122;BME280;35529;44.342;25.944;2023-04-30T12:10:22;100270.31;;;21.46;100.00
49122;BME280;35529;44.342;25.944;2023-04-30T12:12:51;100260.59;;;21.55;100.00
49122;BME280;35529;44.342;25.944;2023-04-30T12:15:21;100254.09;;;21.56;98.99
49122;BME280;35529;44.342;25.944;2023-04-30T12:17:58;100265.47;;;21.58;98.84
49122;BME280;35529;44.342;25.944;2023-04-30T12:20:28;100266.25;;;21.43;87.38
49122;BME280;35529;44.342;25.944;2023-04-30T12:22:58;100267.59;;;21.46;100.00
49122;BME280;35529;44.342;25.944;2023-04-30T12:25:25;100256.25;;;21.54;97.66
49122;BME280;35529;44.342;25.944;2023-04-30T12:27:53;100255.72;;;21.62;100.00
49122;BME280;35529;44.342;25.944;2023-04-30T12:30:20;100248.13;;;21.64;83.16
49122;BME280;35529;44.342;25.944;2023-04-30T12:32:55;100252.94;;;21.72;100.00
49122;BME280;35529;44.342;25.944;2023-04-30T12:35:26;100244.25;;;21.81;100.00
49122;BME280;35529;44.342;25.944;2023-04-30T12:38:00;100256.97;;;21.85;100.00
49122;BME280;35529;44.342;25.944;2023-04-30T12:40:28;100248.84;;;21.90;100.00
49122;BME280;35529;44.342;25.944;2023-04-30T12:43:01;100244.69;;;22.03;100.00
49122;BME280;35529;44.342;25.944;2023-04-30T12:45:43;100241.97;;;22.08;97.32
49122;BME280;35529;44.342;25.944;2023-04-30T12:48:10;100232.47;;;22.16;100.00
49122;BME280;35529;44.342;25.944;2023-04-30T12:50:36;100233.81;;;22.19;97.22
49122;BME280;35529;44.342;25.944;2023-04-30T12:53:08;100231.56;;;22.26;100.00
49122;BME280;35529;44.342;25.944;2023-04-30T12:55:39;100239.09;;;22.34;100.00
49122;BME280;35529;44.342;25.944;2023-04-30T12:58:06;100231.81;;;22.40;91.10
49122;BME280;35529;44.342;25.944;2023-04-30T13:00:41;100231.47;;;22.47;100.00
49122;BME280;35529;44.342;25.944;2023-04-30T13:03:12;100233.91;;;22.48;100.00
49122;BME280;35529;44.342;25.944;2023-04-30T13:05:39;100230.88;;;22.55;100.00
49122;BME280;35529;44.342;25.944;2023-04-30T13:08:09;100223.34;;;22.52;84.91
49122;BME280;35529;44.342;25.944;2023-04-30T13:10:40;100232.44;;;22.61;76.42
49122;BME280;35529;44.342;25.944;2023-04-30T13:13:09;100228.31;;;22.69;78.81
49122;BME280;35529;44.342;25.944;2023-04-30T13:15:42;100223.88;;;22.83;83.73
49122;BME280;35529;44.342;25.944;2023-04-30T13:18:11;100220.16;;;23.03;92.12
49122;BME280;35529;44.342;25.944;2023-04-30T13:20:41;100222.66;;;23.24;92.10
49122;BME280;35529;44.342;25.944;2023-04-30T13:23:11;100215.69;;;23.42;86.44
49122;BME280;35529;44.342;25.944;2023-04-30T13:25:37;100212.47;;;23.40;72.52
49122;BME280;35529;44.342;25.944;2023-04-30T13:28:09;100205.84;;;23.51;79.45
49122;BME280;35529;44.342;25.944;2023-04-30T13:30:38;100213.09;;;23.56;76.56
49122;BME280;35529;44.342;25.944;2023-04-30T13:33:05;100205.44;;;23.63;73.46
49122;BME280;35529;44.342;25.944;2023-04-30T13:35:34;100206.59;;;23.76;84.21
49122;BME280;35529;44.342;25.944;2023-04-30T13:38:04;100206.53;;;23.81;77.23
49122;BME280;35529;44.342;25.944;2023-04-30T13:40:36;100205.13;;;23.65;69.29
49122;BME280;35529;44.342;25.944;2023-04-30T13:43:04;100206.94;;;23.69;79.32
49122;BME280;35529;44.342;25.944;2023-04-30T13:46:11;100203.94;;;23.71;82.03
49122;BME280;35529;44.342;25.944;2023-04-30T14:10:51;100208.91;;;24.07;76.94
49122;BME280;35529;44.342;25.944;2023-04-30T14:13:40;100209.28;;;24.19;85.46
49122;BME280;35529;44.342;25.944;2023-04-30T14:22:19;100204.69;;;24.34;75.66
49122;BME280;35529;44.342;25.944;2023-04-30T14:24:48;100213.22;;;24.46;86.72
49122;BME280;35529;44.342;25.944;2023-04-30T14:27:24;100210.13;;;24.53;84.97
49122;BME280;35529;44.342;25.944;2023-04-30T14:30:19;100202.94;;;24.62;73.45
49122;BME280;35529;44.342;25.944;2023-04-30T14:36:18;100205.09;;;24.60;85.86
49122;BME280;35529;44.342;25.944;2023-04-30T14:38:46;100199.28;;;24.34;85.89
49122;BME280;35529;44.342;25.944;2023-04-30T14:41:12;100205.19;;;24.22;91.22
49122;BME280;35529;44.342;25.944;2023-04-30T14:43:44;100206.34;;;24.16;93.60
49122;BME280;35529;44.342;25.944;2023-04-30T14:46:10;100202.91;;;24.10;88.58
49122;BME280;35529;44.342;25.944;2023-04-30T14:48:39;100201.00;;;24.10;96.88
49122;BME280;35529;44.342;25.944;2023-04-30T14:51:05;100196.16;;;24.07;100.00
49122;BME280;35529;44.342;25.944;2023-04-30T14:53:31;100198.81;;;24.13;100.00